College Corner, Ohio
Current Conditions -  °F | °C
As of 11:15 PM on Wednesday 28 Jan 2015 (Local Time) from KI67 Reporting Station
Clear Clear  
Wind Chill: 27°   Ceiling: Unl
Heat Index: 32°   Visibility: 10mi
Dew Point: 19°   Wind: 5mph
Humidity: 60%   Direction: 170°S
Pressure: 30.14"   Gusts: NA
Location:  39.57°N, 84.81°W
Report Text: KI67 290415Z AUTO 17004KT 10SM CLR 00/M07 A3014 RMK AO1
Loading
Personal Weather Stations






























Interactive Weather Map New forecast layout! Learn more

10-Day Weather Forecast

Advertisements
Track Severe Weather on mobile